66TA weather

Bradair Heliport
Pearland, Texas, United States

Public forecast

Using degrees Fahrenheit for public forecast. Weather courtesy of forecast.io.

Closest aviation weather report (METAR) to Bradair Heliport

Closest report is William P Hobby Airport, 3.3 nm (6.1 km) N. Retrieved 2020/04/02 17:53 UTC (1 hour ago):

KHOU 021753Z 12015KT 10SM BKN030 BKN150 OVC250 24/17 A2995 RMK AO2 SLP145 T02440167 10250 20194 58009

Closest aviation forecast (TAF) to Bradair Heliport

Closest forecast is William P Hobby Airport, 3.3 nm (6.1 km) N. Retrieved 2020/04/02 18:36 UTC (23 minutes ago):

TAF KHOU 021735Z 0218/0318 13010G19KT P6SM BKN035 OVC190 TEMPO 0218/0219 BKN030 OVC250 FM030100 14008KT P6SM SCT025 BKN100 FM030500 14007KT P6SM BKN025 FM030900 15006KT P6SM OVC016 FM031700 15010KT P6SM VCSH SCT025 BKN035